Terminal Aerodrome Forecast
Issued by NWS

Home | Current Version | Previous Version | Graphics & Text | Print | Product List | Glossary On
Versions: 1 2 3 4 5 6 7 8 9 10 11 12 13 14 15 16 17 18
000
FTUS42 KMHX 211300 AAA
TAFISO
TAF AMD
KISO 211305Z 2113/2212 34007G15KT P6SM OVC008
     FM211500 35010G18KT P6SM BKN015
     FM211700 33007G18KT P6SM BKN100
     FM212200 23005KT P6SM SCT100
      AMD LTD TO CLD VIS AND WIND=

USA.gov is the U.S. government's official web portal to all federal, state and local government web resources and services.